Time;durP1;ratioP1;P1;durP2;ratioP2;P2;SDS_P1;SDS_P2;PMS_P1;PMS_P2;Temp;Humidity;BMP_temperature;BMP_pressure;BME280_temperature;BME280_humidity;BME280_pressure;Samples;Min_cycle;Max_cycle;Signal;HPM_P1;HPM_P2
2022/09/17 00:00:18;;;;;;;6.40;4.28;;;;;;;16.07;99.30;99553.44;5109829;28;20088;-72
2022/09/17 00:02:45;;;;;;;8.10;5.07;;;;;;;16.00;100.00;99552.53;5109870;28;20034;-70
2022/09/17 00:05:11;;;;;;;12.23;4.70;;;;;;;15.99;100.00;99554.38;5111043;28;20032;-70
2022/09/17 00:07:36;;;;;;;8.50;5.13;;;;;;;15.93;100.00;99537.06;5111444;28;20420;-71
2022/09/17 00:10:02;;;;;;;8.63;5.38;;;;;;;15.98;100.00;99557.28;5109795;28;20039;-69
2022/09/17 00:12:29;;;;;;;6.85;4.60;;;;;;;15.99;100.00;99543.56;5110812;28;20042;-72
2022/09/17 00:14:55;;;;;;;6.93;5.13;;;;;;;16.09;100.00;99551.41;5111425;28;20028;-72
2022/09/17 00:17:20;;;;;;;8.52;5.28;;;;;;;15.92;100.00;99536.41;5111134;28;20038;-71
2022/09/17 00:19:46;;;;;;;6.03;5.32;;;;;;;15.97;100.00;99551.03;5111156;28;20032;-70
2022/09/17 00:22:11;;;;;;;6.80;5.57;;;;;;;15.89;100.00;99551.97;5110624;28;20485;-71
2022/09/17 00:24:36;;;;;;;8.55;5.15;;;;;;;15.83;100.00;99541.91;5111072;28;20019;-71
2022/09/17 00:27:02;;;;;;;7.63;5.32;;;;;;;15.84;100.00;99545.47;5110986;28;20038;-71
2022/09/17 00:29:27;;;;;;;8.60;5.63;;;;;;;15.83;100.00;99550.03;5111349;28;20110;-72
2022/09/17 00:31:53;;;;;;;7.38;5.13;;;;;;;15.88;100.00;99538.63;5111204;28;20030;-71
2022/09/17 00:34:18;;;;;;;8.40;6.22;;;;;;;15.93;100.00;99529.97;5109287;28;20023;-70
2022/09/17 00:36:43;;;;;;;7.78;5.78;;;;;;;15.81;100.00;99535.00;5110532;28;20398;-71
2022/09/17 00:39:10;;;;;;;13.13;6.07;;;;;;;15.78;100.00;99530.81;5110074;28;20024;-70
2022/09/17 00:41:37;;;;;;;8.38;5.85;;;;;;;15.75;100.00;99514.13;5110036;28;20028;-70
2022/09/17 00:44:40;;;;;;;7.20;5.97;;;;;;;15.82;100.00;99540.25;5109421;28;20480;-71
2022/09/17 00:47:40;;;;;;;7.25;5.82;;;;;;;15.83;100.00;99539.19;5109161;28;20066;-70
2022/09/17 00:50:16;;;;;;;9.73;6.30;;;;;;;15.75;100.00;99533.91;5107413;28;20031;-72
2022/09/17 00:52:51;;;;;;;5.93;5.32;;;;;;;15.65;100.00;99502.75;5107789;28;20032;-71
2022/09/17 00:55:26;;;;;;;7.03;5.88;;;;;;;15.70;100.00;99522.78;5109547;28;20529;-71
2022/09/17 00:57:55;;;;;;;9.73;6.07;;;;;;;15.66;100.00;99520.66;5108817;28;20032;-68
2022/09/17 01:00:21;;;;;;;8.40;5.85;;;;;;;15.58;100.00;99516.16;5108839;28;20274;-68
2022/09/17 01:02:47;;;;;;;8.77;6.18;;;;;;;15.64;100.00;99515.44;5109324;28;20030;-66
2022/09/17 01:05:15;;;;;;;9.45;6.40;;;;;;;15.57;100.00;99510.94;5109064;28;20027;-71
2022/09/17 01:07:40;;;;;;;8.32;5.55;;;;;;;15.62;100.00;99514.78;5109233;27;20111;-71
2022/09/17 01:10:27;;;;;;;8.77;6.15;;;;;;;15.60;100.00;99507.88;5109530;28;20126;-71
2022/09/17 01:12:58;;;;;;;6.57;5.88;;;;;;;15.52;100.00;99503.41;5109321;28;20471;-70
2022/09/17 01:15:31;;;;;;;8.65;6.05;;;;;;;15.60;100.00;99505.16;5109293;28;20051;-70
2022/09/17 01:18:03;;;;;;;7.10;6.10;;;;;;;15.54;100.00;99503.19;5108945;28;20039;-67
2022/09/17 01:20:44;;;;;;;8.60;6.30;;;;;;;15.60;100.00;99500.63;5108872;28;20035;-67
2022/09/17 01:23:29;;;;;;;6.53;5.90;;;;;;;15.52;100.00;99505.28;5107215;28;20028;-67
2022/09/17 01:26:06;;;;;;;6.55;5.88;;;;;;;15.45;100.00;99498.94;5107052;28;20926;-67
2022/09/17 01:29:13;;;;;;;8.48;6.03;;;;;;;15.43;100.00;99496.41;5109075;28;20031;-67
2022/09/17 01:31:41;;;;;;;6.68;5.97;;;;;;;15.42;100.00;99496.59;5108240;28;20027;-67
2022/09/17 01:34:22;;;;;;;7.50;6.55;;;;;;;15.37;100.00;99491.75;5108168;28;20031;-68
2022/09/17 01:37:03;;;;;;;8.55;6.85;;;;;;;15.36;100.00;99492.78;5108721;28;20031;-71
2022/09/17 01:39:47;;;;;;;9.18;6.35;;;;;;;15.41;100.00;99495.75;5109747;28;20039;-71
2022/09/17 01:42:24;;;;;;;7.28;6.00;;;;;;;15.28;100.00;99476.63;5109340;28;20031;-71
2022/09/17 01:44:54;;;;;;;9.10;7.13;;;;;;;15.37;100.00;99475.53;5108086;28;20030;-71
2022/09/17 01:47:30;;;;;;;7.43;6.32;;;;;;;15.30;100.00;99473.72;5109777;28;20024;-72
2022/09/17 01:50:02;;;;;;;7.95;6.28;;;;;;;15.27;100.00;99469.53;5110310;28;20833;-70
2022/09/17 01:52:30;;;;;;;7.35;6.63;;;;;;;15.37;100.00;99469.28;5109776;28;20432;-70
2022/09/17 01:55:01;;;;;;;7.95;6.43;;;;;;;15.31;100.00;99465.44;5109124;28;20507;-71
2022/09/17 01:57:32;;;;;;;8.48;6.97;;;;;;;15.37;100.00;99463.88;5107790;28;20546;-71
2022/09/17 02:00:03;;;;;;;9.90;6.03;;;;;;;15.34;100.00;99470.47;5106435;28;20039;-70
2022/09/17 02:02:47;;;;;;;7.60;6.22;;;;;;;15.24;100.00;99451.00;5109590;28;20031;-71
2022/09/17 02:05:23;;;;;;;7.32;6.50;;;;;;;15.29;100.00;99462.06;5108221;28;20032;-71
2022/09/17 02:07:56;;;;;;;8.95;6.68;;;;;;;15.25;100.00;99460.78;5109646;28;20042;-70
2022/09/17 02:10:33;;;;;;;9.00;6.75;;;;;;;15.24;100.00;99455.56;5108663;28;20050;-71
2022/09/17 02:13:08;;;;;;;10.13;7.30;;;;;;;15.23;100.00;99451.19;5105614;28;20046;-69
2022/09/17 02:15:39;;;;;;;8.38;6.57;;;;;;;15.20;100.00;99448.84;5108057;28;20586;-71
2022/09/17 02:18:04;;;;;;;9.43;6.97;;;;;;;15.18;100.00;99440.94;5109010;28;20024;-70
2022/09/17 02:20:42;;;;;;;8.77;6.32;;;;;;;15.07;100.00;99430.59;5105417;28;20034;-71
2022/09/17 02:23:15;;;;;;;9.02;6.65;;;;;;;15.21;100.00;99453.22;5107338;28;20025;-70
2022/09/17 02:25:49;;;;;;;8.20;6.75;;;;;;;15.19;100.00;99447.19;5107632;28;20042;-70
2022/09/17 02:28:26;;;;;;;10.57;6.43;;;;;;;15.17;100.00;99430.31;5107023;28;20440;-71
2022/09/17 02:30:53;;;;;;;8.88;7.35;;;;;;;15.27;100.00;99447.94;5107159;28;20057;-70
2022/09/17 02:33:20;;;;;;;7.63;6.75;;;;;;;15.22;100.00;99447.63;5106046;28;20024;-71
2022/09/17 02:35:46;;;;;;;8.45;7.05;;;;;;;15.20;100.00;99448.84;5107470;28;20020;-71
2022/09/17 02:38:11;;;;;;;7.60;6.80;;;;;;;15.17;100.00;99443.81;5107786;28;20387;-72
2022/09/17 02:40:50;;;;;;;8.65;7.30;;;;;;;15.16;100.00;99445.66;5108124;28;20038;-71
2022/09/17 02:44:07;;;;;;;9.68;7.95;;;;;;;15.16;100.00;99448.38;5107066;28;20425;-71
2022/09/17 02:46:49;;;;;;;8.20;6.88;;;;;;;15.23;100.00;99440.38;5044486;28;20040;-71
2022/09/17 02:49:53;;;;;;;9.43;7.53;;;;;;;15.35;100.00;99441.59;5044408;28;20623;-72
2022/09/17 02:52:24;;;;;;;10.27;7.35;;;;;;;15.17;100.00;99433.84;5100766;28;20031;-72
2022/09/17 02:55:16;;;;;;;9.95;8.05;;;;;;;15.05;100.00;99418.28;5105531;28;20027;-72
2022/09/17 02:57:49;;;;;;;11.10;8.15;;;;;;;15.08;100.00;99426.84;5107614;28;20028;-71
2022/09/17 03:00:17;;;;;;;8.68;7.30;;;;;;;15.09;100.00;99430.41;5107354;28;20040;-71
2022/09/17 03:02:52;;;;;;;9.90;7.68;;;;;;;15.12;100.00;99411.97;5107412;27;20631;-71
2022/09/17 03:05:20;;;;;;;8.85;7.30;;;;;;;15.11;100.00;99404.03;5104929;28;20019;-70
2022/09/17 03:07:46;;;;;;;8.57;7.32;;;;;;;15.10;100.00;99415.88;5107122;28;20375;-67
2022/09/17 03:10:12;;;;;;;8.65;7.65;;;;;;;15.13;100.00;99405.53;5106367;28;20030;-68
2022/09/17 03:12:38;;;;;;;10.13;8.00;;;;;;;15.17;100.00;99403.28;5107299;28;20023;-68
2022/09/17 03:15:04;;;;;;;9.70;7.93;;;;;;;15.13;100.00;99407.41;5106553;28;20368;-68
2022/09/17 03:17:30;;;;;;;9.85;8.10;;;;;;;15.11;100.00;99413.00;5106863;28;20061;-68
2022/09/17 03:19:55;;;;;;;11.18;8.30;;;;;;;15.15;100.00;99400.78;5106919;28;20027;-68
2022/09/17 03:22:21;;;;;;;9.38;7.68;;;;;;;15.14;100.00;99384.75;5106652;28;20674;-68
2022/09/17 03:24:46;;;;;;;11.77;8.68;;;;;;;15.20;100.00;99382.16;5106689;28;20030;-71
2022/09/17 03:27:12;;;;;;;10.80;8.20;;;;;;;15.19;100.00;99374.25;5106974;28;20126;-71
2022/09/17 03:29:37;;;;;;;8.80;7.90;;;;;;;15.17;100.00;99363.63;5107258;28;20024;-71
2022/09/17 03:32:03;;;;;;;10.70;8.00;;;;;;;15.08;100.00;99343.13;5107172;28;20092;-71
2022/09/17 03:34:28;;;;;;;8.55;7.65;;;;;;;15.14;100.00;99353.19;5108813;28;20031;-71
2022/09/17 03:36:54;;;;;;;9.13;7.93;;;;;;;15.15;100.00;99349.47;5111482;28;20023;-71
2022/09/17 03:39:19;;;;;;;10.07;7.07;;;;;;;15.03;100.00;99325.81;5110921;28;20547;-71
2022/09/17 03:41:45;;;;;;;9.25;7.80;;;;;;;15.08;100.00;99336.88;5111213;28;20031;-72
2022/09/17 03:44:10;;;;;;;9.57;7.80;;;;;;;15.17;100.00;99349.28;5110953;28;20044;-68
2022/09/17 03:46:36;;;;;;;10.02;7.75;;;;;;;15.15;100.00;99335.09;5110917;28;20041;-67
2022/09/17 03:49:01;;;;;;;8.75;7.80;;;;;;;15.17;100.00;99344.72;5109395;28;20483;-67
2022/09/17 03:51:27;;;;;;;10.07;7.88;;;;;;;15.22;100.00;99341.47;5110561;28;20020;-67
2022/09/17 03:53:52;;;;;;;9.15;7.63;;;;;;;15.18;100.00;99340.97;5110327;27;20108;-67
2022/09/17 03:56:18;;;;;;;9.65;7.75;;;;;;;15.17;100.00;99333.06;5110444;28;20091;-67
2022/09/17 03:58:43;;;;;;;8.77;7.63;;;;;;;15.11;100.00;99323.84;5110706;28;20482;-67
2022/09/17 04:01:09;;;;;;;8.82;7.90;;;;;;;15.15;100.00;99327.84;5110468;28;20085;-68
2022/09/17 04:03:35;;;;;;;9.00;8.10;;;;;;;15.18;100.00;99334.75;5110355;28;20030;-71
2022/09/17 04:06:01;;;;;;;8.90;7.72;;;;;;;15.11;100.00;99342.78;5110890;28;20024;-70
2022/09/17 04:08:26;;;;;;;9.43;7.28;;;;;;;15.09;100.00;99331.31;5110628;28;20088;-71
2022/09/17 04:10:52;;;;;;;10.35;8.02;;;;;;;15.21;100.00;99345.16;5110546;28;20127;-68
2022/09/17 04:13:18;;;;;;;9.25;7.85;;;;;;;15.17;100.00;99346.56;5109817;27;20038;-68
2022/09/17 04:15:45;;;;;;;9.88;7.22;;;;;;;15.05;100.00;99330.00;5110150;28;20107;-68
2022/09/17 04:18:10;;;;;;;9.15;7.07;;;;;;;15.16;100.00;99353.00;5110305;28;20038;-67
2022/09/17 04:20:36;;;;;;;10.77;7.97;;;;;;;15.10;100.00;99357.31;5110480;28;20020;-67
2022/09/17 04:23:02;;;;;;;9.57;7.68;;;;;;;14.97;100.00;99342.78;5110015;28;20029;-68
2022/09/17 04:25:28;;;;;;;11.70;8.57;;;;;;;14.97;100.00;99357.13;5109754;28;20035;-71
2022/09/17 04:27:53;;;;;;;11.45;8.38;;;;;;;15.10;100.00;99381.63;5110517;28;20039;-72
2022/09/17 04:30:19;;;;;;;10.13;7.82;;;;;;;15.10;100.00;99380.75;5110428;28;20022;-72
2022/09/17 04:32:45;;;;;;;8.30;7.45;;;;;;;15.10;100.00;99378.91;5110600;28;20046;-71
2022/09/17 04:35:11;;;;;;;15.02;8.48;;;;;;;15.01;100.00;99377.31;5108642;28;20475;-72
2022/09/17 04:37:37;;;;;;;10.10;7.82;;;;;;;14.95;100.00;99361.84;5109195;28;20489;-71
2022/09/17 04:40:03;;;;;;;8.93;7.65;;;;;;;15.03;100.00;99383.34;5109002;28;20038;-71
2022/09/17 04:42:29;;;;;;;12.13;8.80;;;;;;;14.87;100.00;99388.09;5109418;28;20491;-69
2022/09/17 04:44:54;;;;;;;11.18;8.65;;;;;;;14.76;100.00;99380.44;5108967;28;20065;-67
2022/09/17 04:47:20;;;;;;;11.20;8.20;;;;;;;14.69;100.00;99388.44;5108178;28;20059;-66
2022/09/17 04:49:45;;;;;;;10.05;8.60;;;;;;;14.74;100.00;99404.91;5108912;28;20097;-67
2022/09/17 04:52:11;;;;;;;11.18;7.90;;;;;;;14.82;100.00;99407.56;5109062;28;20027;-67
2022/09/17 04:54:36;;;;;;;12.57;8.70;;;;;;;14.81;100.00;99411.28;5108316;28;20026;-67
2022/09/17 04:57:02;;;;;;;12.25;8.02;;;;;;;14.73;100.00;99411.34;5108701;28;20055;-68
2022/09/17 04:59:28;;;;;;;10.23;8.10;;;;;;;14.70;100.00;99419.00;5108969;28;20028;-71
2022/09/17 05:01:54;;;;;;;11.05;8.05;;;;;;;14.66;100.00;99415.81;5109146;28;20039;-71
2022/09/17 05:04:19;;;;;;;9.77;8.30;;;;;;;14.68;100.00;99412.94;5108269;28;20034;-68
2022/09/17 05:06:45;;;;;;;10.88;7.30;;;;;;;14.66;100.00;99421.19;5108483;28;20442;-68
2022/09/17 05:09:11;;;;;;;8.70;7.45;;;;;;;14.69;100.00;99423.53;5108151;28;20031;-68
2022/09/17 05:11:36;;;;;;;8.50;6.35;;;;;;;14.70;100.00;99425.19;5106725;28;20128;-68
2022/09/17 05:14:02;;;;;;;8.13;6.90;;;;;;;14.68;100.00;99423.72;5107982;28;20394;-68
2022/09/17 05:16:27;;;;;;;8.13;7.18;;;;;;;14.66;100.00;99423.06;5107719;28;20031;-67
2022/09/17 05:18:53;;;;;;;8.75;7.18;;;;;;;14.64;100.00;99444.00;5107410;28;20026;-66
2022/09/17 05:21:19;;;;;;;8.93;7.18;;;;;;;14.62;100.00;99444.19;5107098;28;20063;-67
2022/09/17 05:23:45;;;;;;;8.93;7.25;;;;;;;14.67;100.00;99439.06;5106753;28;20034;-67
2022/09/17 05:26:11;;;;;;;9.30;7.05;;;;;;;14.70;100.00;99448.69;5101783;27;20169;-67
2022/09/17 05:28:36;;;;;;;9.55;6.95;;;;;;;14.70;100.00;99448.69;5105255;27;20432;-67
2022/09/17 05:31:02;;;;;;;9.40;6.30;;;;;;;14.59;100.00;99452.63;5106712;27;20032;-67
2022/09/17 05:33:28;;;;;;;7.72;6.93;;;;;;;14.63;100.00;99445.00;5108401;27;20064;-68
2022/09/17 05:35:53;;;;;;;9.77;7.57;;;;;;;14.58;100.00;99458.22;5110801;27;20020;-67
2022/09/17 05:38:19;;;;;;;9.20;6.93;;;;;;;14.70;100.00;99465.69;5107733;28;20031;-68
2022/09/17 05:40:45;;;;;;;9.88;7.25;;;;;;;14.59;100.00;99460.72;5107591;28;20066;-67
2022/09/17 05:43:12;;;;;;;9.38;7.38;;;;;;;14.54;100.00;99468.53;5109620;27;20031;-67
2022/09/17 05:45:37;;;;;;;8.38;6.90;;;;;;;14.46;100.00;99467.75;5101628;28;20100;-68
2022/09/17 05:48:05;;;;;;;10.43;7.50;;;;;;;14.40;100.00;99458.50;5105354;27;20019;-67
2022/09/17 05:50:31;;;;;;;9.45;6.97;;;;;;;14.41;100.00;99470.97;5106639;27;20364;-68
2022/09/17 05:53:02;;;;;;;10.35;7.60;;;;;;;14.37;100.00;99461.56;5107250;28;20032;-67
2022/09/17 05:55:27;;;;;;;11.07;7.82;;;;;;;14.33;100.00;99465.66;5103187;28;20485;-67
2022/09/17 05:57:52;;;;;;;10.45;7.32;;;;;;;14.31;100.00;99470.38;5105534;28;20031;-70
2022/09/17 06:00:18;;;;;;;10.40;7.88;;;;;;;14.27;100.00;99452.88;5108285;27;20059;-71
2022/09/17 06:02:43;;;;;;;13.00;9.07;;;;;;;14.43;100.00;99458.16;5109290;28;20495;-70
2022/09/17 06:05:09;;;;;;;10.20;7.38;;;;;;;14.56;100.00;99449.44;5106153;28;20028;-71
2022/09/17 06:07:35;;;;;;;12.18;8.25;;;;;;;14.48;100.00;99452.22;5109123;27;20027;-71
2022/09/17 06:10:02;;;;;;;12.55;8.23;;;;;;;14.38;100.00;99443.53;5107829;28;20062;-72
2022/09/17 06:12:27;;;;;;;11.23;8.18;;;;;;;14.38;100.00;99438.97;5107197;28;20098;-68
2022/09/17 06:14:53;;;;;;;12.13;7.88;;;;;;;14.35;100.00;99442.00;5106487;28;20099;-68
2022/09/17 06:17:18;;;;;;;8.98;7.43;;;;;;;14.31;100.00;99442.59;5107237;27;20035;-68
2022/09/17 06:19:44;;;;;;;10.25;7.40;;;;;;;14.23;100.00;99424.59;5106757;28;20036;-67
2022/09/17 06:22:09;;;;;;;8.73;7.10;;;;;;;14.32;100.00;99439.69;5102839;28;20028;-67
2022/09/17 06:24:35;;;;;;;9.32;6.43;;;;;;;14.22;100.00;99427.44;5105898;28;20039;-67
2022/09/17 06:27:00;;;;;;;8.70;6.53;;;;;;;14.30;100.00;99444.44;5104305;28;20120;-67
2022/09/17 06:29:26;;;;;;;7.30;6.43;;;;;;;14.34;100.00;99434.09;5106009;28;20047;-67
2022/09/17 06:31:52;;;;;;;8.07;6.50;;;;;;;14.47;100.00;99447.81;5106374;27;20035;-66
2022/09/17 06:34:18;;;;;;;8.90;6.47;;;;;;;14.55;100.00;99455.88;5107683;27;20032;-68
2022/09/17 06:36:44;;;;;;;9.75;7.32;;;;;;;14.55;100.00;99467.53;5108645;27;20031;-68
2022/09/17 06:39:10;;;;;;;11.90;7.88;;;;;;;14.53;100.00;99466.00;5107211;27;20027;-68
2022/09/17 06:41:41;;;;;;;10.98;6.85;;;;;;;14.45;100.00;99456.09;5108150;27;20034;-69
2022/09/17 06:44:06;;;;;;;9.55;7.40;;;;;;;14.45;100.00;99461.50;5106214;27;20023;-68
2022/09/17 06:46:32;;;;;;;7.95;6.55;;;;;;;14.45;100.00;99457.97;5102477;28;20062;-67
2022/09/17 06:48:57;;;;;;;11.35;6.75;;;;;;;14.38;100.00;99452.44;5104104;27;20287;-67
2022/09/17 06:51:23;;;;;;;9.63;7.35;;;;;;;14.32;100.00;99438.84;5104083;27;20031;-68
2022/09/17 06:53:48;;;;;;;9.57;7.32;;;;;;;14.33;100.00;99438.69;5106948;27;20050;-68
2022/09/17 06:56:14;;;;;;;8.32;6.50;;;;;;;14.43;100.00;99428.47;5104467;28;20036;-68
2022/09/17 06:58:43;;;;;;;8.50;7.25;;;;;;;14.46;100.00;99448.84;5105268;27;20042;-68
2022/09/17 07:01:11;;;;;;;7.93;7.13;;;;;;;14.54;100.00;99446.94;5102410;28;20048;-68
2022/09/17 07:03:37;;;;;;;8.55;7.00;;;;;;;14.53;100.00;99439.00;5102231;28;20038;-68
2022/09/17 07:06:03;;;;;;;11.38;6.97;;;;;;;14.52;100.00;99443.59;5101483;28;20040;-68
2022/09/17 07:08:33;;;;;;;8.85;7.03;;;;;;;14.49;100.00;99440.41;5101657;28;20096;-68
2022/09/17 07:10:59;;;;;;;11.05;7.68;;;;;;;14.38;100.00;99417.38;5102876;27;20112;-67
2022/09/17 07:13:25;;;;;;;8.85;7.95;;;;;;;14.50;100.00;99424.03;5104649;28;20648;-67
2022/09/17 07:15:55;;;;;;;10.82;8.15;;;;;;;14.53;100.00;99420.13;5103434;28;20425;-67
2022/09/17 07:18:22;;;;;;;11.65;8.27;;;;;;;14.50;100.00;99418.63;5103493;28;20035;-67
2022/09/17 07:21:01;;;;;;;9.02;7.20;;;;;;;14.53;100.00;99403.94;5107193;27;20043;-68
2022/09/17 07:23:32;;;;;;;8.50;7.47;;;;;;;14.58;100.00;99409.63;5102220;28;20675;-67
2022/09/17 07:26:00;;;;;;;7.78;6.90;;;;;;;14.61;100.00;99420.91;5103071;27;20063;-68
2022/09/17 07:28:27;;;;;;;9.50;7.38;;;;;;;14.71;100.00;99428.75;5103324;28;20032;-68
2022/09/17 07:30:54;;;;;;;8.32;6.80;;;;;;;14.79;100.00;99418.72;5102139;28;20046;-68
2022/09/17 07:33:23;;;;;;;7.20;6.47;;;;;;;14.72;100.00;99412.38;5103287;28;20110;-66
2022/09/17 07:35:53;;;;;;;8.40;6.88;;;;;;;14.81;100.00;99430.19;5104037;28;20047;-67
2022/09/17 07:38:19;;;;;;;19.60;7.95;;;;;;;14.97;100.00;99432.72;5101522;28;20454;-66
2022/09/17 07:40:54;;;;;;;9.98;8.00;;;;;;;14.91;100.00;99430.75;5107807;28;20127;-67
2022/09/17 07:43:20;;;;;;;8.50;7.18;;;;;;;14.79;100.00;99428.66;5104349;28;20151;-66
2022/09/17 07:45:45;;;;;;;9.15;7.20;;;;;;;14.72;100.00;99433.97;5103194;28;20499;-67
2022/09/17 07:48:10;;;;;;;9.40;6.90;;;;;;;14.68;100.00;99437.22;5103619;28;20027;-67
2022/09/17 07:50:36;;;;;;;8.73;6.70;;;;;;;14.67;100.00;99425.56;5104553;28;20023;-66
2022/09/17 07:53:03;;;;;;;10.43;7.68;;;;;;;14.79;100.00;99451.09;5103401;28;20352;-66
2022/09/17 07:55:28;;;;;;;11.32;6.35;;;;;;;14.74;100.00;99448.09;5103166;28;20660;-66
2022/09/17 07:57:54;;;;;;;9.68;6.53;;;;;;;14.71;100.00;99443.09;5103116;27;20040;-67
2022/09/17 08:00:20;;;;;;;9.18;7.68;;;;;;;14.84;100.00;99445.16;5103415;28;20023;-66
2022/09/17 08:02:52;;;;;;;13.65;7.10;;;;;;;14.75;100.00;99444.41;5103055;28;20050;-71
2022/09/17 08:05:17;;;;;;;8.98;6.65;;;;;;;14.63;100.00;99423.41;5105122;28;20532;-71
2022/09/17 08:07:43;;;;;;;10.65;7.22;;;;;;;14.79;100.00;99443.00;5105540;28;20042;-69
2022/09/17 08:10:08;;;;;;;9.32;7.25;;;;;;;14.87;100.00;99456.41;5107447;28;20032;-69
2022/09/17 08:12:34;;;;;;;11.65;7.05;;;;;;;14.79;100.00;99456.50;5104288;28;20445;-69
2022/09/17 08:14:59;;;;;;;11.02;7.53;;;;;;;14.92;100.00;99470.22;5104964;27;20475;-71
2022/09/17 08:17:24;;;;;;;7.57;6.82;;;;;;;14.88;100.00;99478.88;5104431;28;20040;-71
2022/09/17 08:19:50;;;;;;;9.18;7.03;;;;;;;14.92;100.00;99485.56;5106917;28;20047;-71
2022/09/17 08:22:15;;;;;;;9.60;7.47;;;;;;;14.77;100.00;99479.31;5108572;28;20062;-71
2022/09/17 08:24:41;;;;;;;9.52;7.10;;;;;;;14.77;100.00;99485.53;5110573;28;20091;-71
2022/09/17 08:27:09;;;;;;;8.13;7.32;;;;;;;14.82;100.00;99482.28;5109470;27;20440;-72
2022/09/17 08:29:34;;;;;;;12.60;6.55;;;;;;;14.88;100.00;99495.06;5106878;27;20225;-72
2022/09/17 08:32:00;;;;;;;10.95;6.97;;;;;;;14.83;100.00;99489.41;5106079;28;20475;-72
2022/09/17 08:34:25;;;;;;;8.15;7.25;;;;;;;14.94;100.00;99516.78;5107904;28;20028;-72
2022/09/17 08:36:51;;;;;;;8.65;7.60;;;;;;;14.92;100.00;99512.56;5109032;28;20035;-71
2022/09/17 08:39:17;;;;;;;10.80;7.20;;;;;;;14.96;100.00;99514.72;5109457;28;20111;-71
2022/09/17 08:42:01;;;;;;;13.80;6.75;;;;;;;15.02;100.00;99508.59;5108442;28;20068;-71
2022/09/17 08:44:40;;;;;;;9.85;6.75;;;;;;;14.97;100.00;99500.22;5111125;27;20099;-71
2022/09/17 08:47:17;;;;;;;8.00;7.20;;;;;;;14.99;100.00;99508.16;5108260;28;20487;-72
2022/09/17 08:49:46;;;;;;;7.30;6.50;;;;;;;15.02;100.00;99494.25;5108230;28;20035;-71
2022/09/17 08:52:49;;;;;;;8.35;6.50;;;;;;;15.05;100.00;99496.59;5109785;27;20028;-71
2022/09/17 08:55:17;;;;;;;7.88;7.03;;;;;;;15.11;100.00;99490.47;5106611;27;20461;-68
2022/09/17 08:57:51;;;;;;;10.63;7.50;;;;;;;15.26;100.00;99499.44;5104665;28;20055;-68
2022/09/17 09:00:21;;;;;;;8.95;6.45;;;;;;;15.23;100.00;99497.09;5105643;27;20084;-68
2022/09/17 09:02:56;;;;;;;6.85;6.15;;;;;;;15.23;100.00;99497.09;5106898;28;20082;-68
2022/09/17 09:05:32;;;;;;;9.80;6.43;;;;;;;15.24;100.00;99480.72;5110122;27;20519;-67
2022/09/17 09:08:18;;;;;;;8.25;5.90;;;;;;;15.27;100.00;99469.53;5107769;27;20067;-68
2022/09/17 09:10:50;;;;;;;8.55;6.50;;;;;;;15.40;100.00;99488.69;5104043;28;20087;-67
2022/09/17 09:13:20;;;;;;;7.45;6.22;;;;;;;15.34;100.00;99475.03;5106669;28;20012;-67
2022/09/17 09:16:01;;;;;;;8.88;5.40;;;;;;;15.39;100.00;99459.16;5109092;28;20024;-68
2022/09/17 09:18:35;;;;;;;6.90;6.15;;;;;;;15.43;100.00;99430.72;5108834;27;20024;-67
2022/09/17 09:21:18;;;;;;;6.65;5.60;;;;;;;15.44;100.00;99438.63;5108511;27;20039;-72
2022/09/17 09:24:04;;;;;;;8.45;5.85;;;;;;;15.54;100.00;99449.16;5106262;28;20023;-72
2022/09/17 09:26:50;;;;;;;7.10;5.38;;;;;;;15.51;100.00;99460.38;5107733;27;20436;-71
2022/09/17 09:29:34;;;;;;;6.47;5.55;;;;;;;15.42;100.00;99461.47;5108342;28;20076;-71
2022/09/17 09:32:35;;;;;;;5.70;5.10;;;;;;;15.37;100.00;99474.69;5107318;28;20036;-72
2022/09/17 09:35:18;;;;;;;10.35;5.95;;;;;;;15.28;100.00;99456.84;5107977;27;20299;-72
2022/09/17 09:38:05;;;;;;;9.57;5.40;;;;;;;15.28;100.00;99454.16;5105596;28;20026;-72
2022/09/17 09:40:35;;;;;;;7.78;5.00;;;;;;;15.21;100.00;99451.38;5107305;28;20070;-70
2022/09/17 09:43:11;;;;;;;9.27;5.53;;;;;;;15.10;100.00;99446.44;5109519;27;20031;-72
2022/09/17 09:46:17;;;;;;;5.65;5.15;;;;;;;15.04;100.00;99447.16;5105417;28;20031;-72
2022/09/17 09:49:01;;;;;;;6.72;5.43;;;;;;;15.08;100.00;99447.63;5092498;28;20548;-71
2022/09/17 09:51:52;;;;;;;6.93;5.75;;;;;;;15.12;100.00;99448.94;5109017;27;20039;-71
2022/09/17 09:54:20;;;;;;;7.55;6.00;;;;;;;15.20;100.00;99452.41;5109060;27;20028;-70
2022/09/17 09:56:50;;;;;;;6.07;5.28;;;;;;;15.14;100.00;99454.97;5107189;27;20092;-70
2022/09/17 09:59:18;;;;;;;7.10;5.25;;;;;;;15.15;100.00;99473.72;5108138;27;20084;-71
2022/09/17 10:01:43;;;;;;;8.75;5.40;;;;;;;15.14;100.00;99472.03;5106295;28;20055;-71
2022/09/17 10:04:28;;;;;;;5.38;4.88;;;;;;;15.07;100.00;99462.16;5108481;27;20708;-72
2022/09/17 10:07:07;;;;;;;5.65;4.50;;;;;;;15.17;100.00;99450.06;5106173;28;20035;-70
2022/09/17 10:09:35;;;;;;;5.70;5.07;;;;;;;15.13;100.00;99442.50;5102259;28;20032;-70
2022/09/17 10:12:15;;;;;;;6.78;4.50;;;;;;;15.11;100.00;99444.53;5105396;27;20441;-70
2022/09/17 10:14:43;;;;;;;6.60;4.93;;;;;;;15.11;100.00;99445.41;5104245;28;20073;-70
2022/09/17 10:17:14;;;;;;;7.65;4.05;;;;;;;15.27;100.00;99431.72;5104853;28;20028;-71
2022/09/17 10:19:41;;;;;;;6.00;4.15;;;;;;;15.14;100.00;99403.66;5104829;28;20126;-70
2022/09/17 10:22:38;;;;;;;6.60;4.22;;;;;;;15.26;100.00;99405.72;5107933;27;20083;-69
2022/09/17 10:25:11;;;;;;;4.60;3.78;;;;;;;15.38;100.00;99406.94;5105004;27;20780;-70
2022/09/17 10:27:43;;;;;;;5.45;4.40;;;;;;;15.64;96.77;99403.78;5109064;27;20035;-68
2022/09/17 10:30:14;;;;;;;4.38;3.40;;;;;;;15.69;96.67;99407.59;5108298;27;20043;-69
2022/09/17 10:32:40;;;;;;;6.45;3.60;;;;;;;15.72;95.63;99403.66;5109201;27;20031;-69
2022/09/17 10:35:14;;;;;;;13.80;3.92;;;;;;;15.82;93.42;99383.41;5106142;28;20031;-68
2022/09/17 10:37:51;;;;;;;4.75;3.35;;;;;;;15.85;94.04;99380.31;5106807;28;20418;-68
2022/09/17 10:40:17;;;;;;;3.85;3.33;;;;;;;15.91;95.33;99359.78;5107034;28;20031;-68
2022/09/17 10:42:43;;;;;;;5.07;3.50;;;;;;;16.02;94.38;99332.22;5106701;28;21482;-68
2022/09/17 10:45:23;;;;;;;5.57;3.10;;;;;;;16.12;90.10;99350.84;5107380;28;20464;-68
2022/09/17 10:47:49;;;;;;;5.43;3.10;;;;;;;16.20;87.07;99372.34;5104256;28;20027;-69
2022/09/17 10:50:17;;;;;;;5.78;2.97;;;;;;;16.19;86.91;99374.22;5107171;28;20031;-68
2022/09/17 10:52:48;;;;;;;4.78;3.15;;;;;;;16.30;86.28;99362.03;5106720;28;20046;-69
2022/09/17 10:55:46;;;;;;;4.90;3.00;;;;;;;16.31;84.66;99355.63;5106410;28;20031;-68
2022/09/17 10:58:33;;;;;;;4.43;3.28;;;;;;;16.29;84.92;99347.69;5092338;28;20067;-66
2022/09/17 11:01:24;;;;;;;5.88;3.35;;;;;;;16.25;85.84;99330.13;5106352;28;20035;-66
2022/09/17 11:04:19;;;;;;;4.43;2.97;;;;;;;16.20;86.41;99329.91;5104560;28;20047;-66
2022/09/17 11:07:03;;;;;;;3.70;2.80;;;;;;;16.34;83.53;99357.94;5106483;28;20036;-66
2022/09/17 11:09:37;;;;;;;6.83;3.13;;;;;;;16.56;79.89;99371.25;5106165;28;20058;-66
2022/09/17 11:12:40;;;;;;;5.40;3.42;;;;;;;16.51;82.00;99379.13;5107402;28;20750;-66
2022/09/17 11:15:18;;;;;;;4.35;3.13;;;;;;;16.46;83.69;99380.75;5105038;28;20770;-68
2022/09/17 11:17:45;;;;;;;4.93;3.47;;;;;;;16.42;84.22;99361.34;5105583;28;20057;-68
2022/09/17 11:20:45;;;;;;;4.30;3.33;;;;;;;16.35;83.99;99348.78;5105888;28;20027;-69
2022/09/17 11:23:16;;;;;;;4.38;3.10;;;;;;;16.42;83.35;99357.78;5105011;28;20055;-68
2022/09/17 11:26:18;;;;;;;4.22;3.47;;;;;;;16.40;83.65;99338.19;5102048;28;20036;-67
2022/09/17 11:28:58;;;;;;;4.18;2.92;;;;;;;16.38;84.82;99341.06;5101429;28;20047;-67
2022/09/17 11:31:32;;;;;;;5.15;2.90;;;;;;;16.37;84.53;99343.97;5104531;28;20278;-67
2022/09/17 11:34:19;;;;;;;4.60;3.13;;;;;;;16.46;81.40;99356.38;5101349;28;20038;-67
2022/09/17 11:37:02;;;;;;;5.25;3.05;;;;;;;16.34;82.78;99352.53;5102342;28;20677;-68
2022/09/17 11:39:43;;;;;;;5.33;3.03;;;;;;;16.33;81.82;99356.22;5103588;28;20107;-67
2022/09/17 11:42:36;;;;;;;3.70;2.53;;;;;;;16.27;79.89;99347.03;5104416;28;20490;-68